createdAt,value
2022-11-19T00:02:20.825Z,21.27
2022-11-19T00:04:49.143Z,20.40
2022-11-19T00:07:18.593Z,20.08
2022-11-19T00:09:46.705Z,18.55
2022-11-19T00:12:32.081Z,19.65
2022-11-19T00:15:00.620Z,20.88
2022-11-19T00:17:29.112Z,19.02
2022-11-19T00:19:57.234Z,20.33
2022-11-19T00:22:26.704Z,20.33
2022-11-19T00:24:54.670Z,18.80
2022-11-19T00:27:22.697Z,19.88
2022-11-19T00:29:50.818Z,19.90
2022-11-19T00:32:42.478Z,18.90
2022-11-19T00:35:11.304Z,19.30
2022-11-19T00:37:41.203Z,19.93
2022-11-19T00:40:12.063Z,19.50
2022-11-19T00:43:00.359Z,18.98
2022-11-19T00:45:28.507Z,20.35
2022-11-19T00:47:56.544Z,20.90
2022-11-19T00:50:24.760Z,20.25
2022-11-19T00:52:54.561Z,19.27
2022-11-19T00:55:22.709Z,20.25
2022-11-19T00:57:50.930Z,20.02
2022-11-19T01:00:19.348Z,19.60
2022-11-19T01:02:47.443Z,17.75
2022-11-19T01:05:15.915Z,18.45
2022-11-19T01:07:44.295Z,18.98
2022-11-19T01:10:14.023Z,17.70
2022-11-19T01:12:56.016Z,18.15
2022-11-19T01:15:24.100Z,18.13
2022-11-19T01:17:52.052Z,18.50
2022-11-19T01:20:20.311Z,19.88
2022-11-19T01:22:48.455Z,20.23
2022-11-19T01:25:18.472Z,21.10
2022-11-19T01:27:46.454Z,21.17
2022-11-19T01:30:14.971Z,18.85
2022-11-19T01:32:43.180Z,19.23
2022-11-19T01:35:11.367Z,19.85
2022-11-19T01:37:39.490Z,19.98
2022-11-19T01:40:08.624Z,19.08
2022-11-19T01:42:54.019Z,18.77
2022-11-19T01:45:32.343Z,18.33
2022-11-19T01:48:04.338Z,19.55
2022-11-19T01:50:35.455Z,19.83
2022-11-19T01:53:03.750Z,18.63
2022-11-19T01:55:32.340Z,20.02
2022-11-19T01:58:04.445Z,20.20
2022-11-19T02:00:32.628Z,19.08
2022-11-19T02:03:00.963Z,19.65
2022-11-19T02:05:29.905Z,19.70
2022-11-19T02:08:00.209Z,20.52
2022-11-19T02:10:38.975Z,19.80
2022-11-19T02:13:20.310Z,20.90
2022-11-19T02:15:55.517Z,19.85
2022-11-19T02:18:43.558Z,21.02
2022-11-19T02:21:33.914Z,21.25
2022-11-19T02:24:24.300Z,20.08
2022-11-19T02:27:32.952Z,20.05
2022-11-19T02:30:13.876Z,22.10
2022-11-19T02:33:04.948Z,19.98
2022-11-19T02:35:49.200Z,19.75
2022-11-19T02:38:27.761Z,19.23
2022-11-19T02:40:59.955Z,19.50
2022-11-19T02:43:34.085Z,20.23
2022-11-19T02:46:09.817Z,19.67
2022-11-19T02:48:44.125Z,19.42
2022-11-19T02:51:14.454Z,20.63
2022-11-19T02:53:42.795Z,19.65
2022-11-19T02:56:17.550Z,21.73
2022-11-19T02:59:13.846Z,19.10
2022-11-19T03:02:03.456Z,19.25
2022-11-19T03:04:33.820Z,18.63
2022-11-19T03:07:07.078Z,19.70
2022-11-19T03:09:40.809Z,19.45
2022-11-19T03:12:17.284Z,19.55
2022-11-19T03:15:12.369Z,19.73
2022-11-19T03:17:54.491Z,20.02
2022-11-19T03:20:28.052Z,20.40
2022-11-19T03:23:01.793Z,20.13
2022-11-19T03:25:35.991Z,18.40
2022-11-19T03:28:09.095Z,18.88
2022-11-19T03:30:39.006Z,19.77
2022-11-19T03:33:14.405Z,19.45
2022-11-19T03:35:46.551Z,18.40
2022-11-19T03:38:17.529Z,19.60
2022-11-19T03:40:48.149Z,19.98
2022-11-19T03:43:19.937Z,18.73
2022-11-19T03:45:49.846Z,19.77
2022-11-19T03:48:23.547Z,20.42
2022-11-19T03:50:55.787Z,19.23
2022-11-19T03:53:24.492Z,18.77
2022-11-19T03:55:55.478Z,18.30
2022-11-19T03:58:26.035Z,18.10
2022-11-19T04:00:55.144Z,19.00
2022-11-19T04:03:24.544Z,19.48
2022-11-19T04:05:52.975Z,18.75
2022-11-19T04:08:21.079Z,18.15
2022-11-19T04:10:49.268Z,18.65
2022-11-19T04:13:17.279Z,19.73
2022-11-19T04:15:45.650Z,19.50
2022-11-19T04:18:13.837Z,18.92
2022-11-19T04:20:44.065Z,18.33
2022-11-19T04:23:12.498Z,19.38
2022-11-19T04:25:41.699Z,18.92
2022-11-19T04:28:10.004Z,19.88
2022-11-19T04:30:38.098Z,18.85
2022-11-19T04:33:06.261Z,18.63
2022-11-19T04:35:34.484Z,18.73
2022-11-19T04:38:04.664Z,19.75
2022-11-19T04:40:32.915Z,19.33
2022-11-19T04:43:01.402Z,18.48
2022-11-19T04:45:29.554Z,18.33
2022-11-19T04:47:57.693Z,18.58
2022-11-19T04:50:26.095Z,19.65
2022-11-19T04:52:54.333Z,19.08
2022-11-19T04:55:23.998Z,20.40
2022-11-19T04:57:53.395Z,19.83
2022-11-19T05:00:21.577Z,20.42
2022-11-19T05:02:49.669Z,19.20
2022-11-19T05:05:18.481Z,20.00
2022-11-19T05:07:46.790Z,19.67
2022-11-19T05:10:15.637Z,20.90
2022-11-19T05:12:45.600Z,22.13
2022-11-19T05:15:13.855Z,22.58
2022-11-19T05:17:41.969Z,22.30
2022-11-19T05:20:11.486Z,23.90
2022-11-19T05:25:08.327Z,20.80
2022-11-19T05:27:36.817Z,21.70
2022-11-19T05:30:08.570Z,22.05
2022-11-19T05:32:37.913Z,21.75
2022-11-19T05:35:06.866Z,23.52
2022-11-19T05:37:35.735Z,22.08
2022-11-19T05:40:03.875Z,17.45
2022-11-19T05:42:33.740Z,21.42
2022-11-19T05:45:02.025Z,21.40
2022-11-19T05:47:32.147Z,21.77
2022-11-19T05:50:00.368Z,22.02
2022-11-19T05:52:28.764Z,21.75
2022-11-19T05:54:57.118Z,25.10
2022-11-19T05:57:25.221Z,31.33
2022-11-19T05:59:53.536Z,30.08
2022-11-19T06:02:21.719Z,25.80
2022-11-19T06:04:51.601Z,25.33
2022-11-19T06:07:20.152Z,25.67
2022-11-19T06:09:48.538Z,22.77
2022-11-19T06:12:18.061Z,23.40
2022-11-19T06:17:14.455Z,21.20
2022-11-19T06:19:42.726Z,22.67
2022-11-19T06:22:12.994Z,22.45
2022-11-19T06:24:41.166Z,25.23
2022-11-19T06:27:09.381Z,24.67
2022-11-19T06:29:37.644Z,25.38
2022-11-19T06:32:06.325Z,24.33
2022-11-19T06:34:34.863Z,26.43
2022-11-19T06:37:03.252Z,21.52
2022-11-19T06:39:33.261Z,22.77
2022-11-19T06:42:22.757Z,23.25
2022-11-19T06:47:19.163Z,21.58
2022-11-19T06:49:47.288Z,22.98
2022-11-19T06:52:15.521Z,25.50
2022-11-19T06:54:45.342Z,24.48
2022-11-19T06:57:13.465Z,26.90
2022-11-19T06:59:41.862Z,25.60
2022-11-19T07:02:12.209Z,26.05
2022-11-19T07:04:40.570Z,27.90
2022-11-19T07:07:10.341Z,31.20
2022-11-19T07:09:40.184Z,32.35
2022-11-19T07:12:10.687Z,31.73
2022-11-19T07:14:38.858Z,28.30
2022-11-19T07:17:07.127Z,31.88
2022-11-19T07:19:35.450Z,43.28
2022-11-19T07:22:03.847Z,42.05
2022-11-19T07:24:32.292Z,40.25
2022-11-19T07:27:00.518Z,39.30
2022-11-19T07:29:30.194Z,31.83
2022-11-19T07:31:58.460Z,34.72
2022-11-19T07:34:26.608Z,39.33
2022-11-19T07:36:54.876Z,32.95
2022-11-19T07:39:23.605Z,38.10
2022-11-19T07:42:09.076Z,34.72
2022-11-19T07:44:38.832Z,32.80
2022-11-19T07:47:08.181Z,35.25
2022-11-19T07:49:36.479Z,34.97
2022-11-19T07:52:04.717Z,33.80
2022-11-19T07:54:32.946Z,34.28
2022-11-19T07:57:00.990Z,30.23
2022-11-19T07:59:29.055Z,30.15
2022-11-19T08:01:58.414Z,28.33
2022-11-19T08:04:29.287Z,30.77
2022-11-19T08:06:57.587Z,32.03
2022-11-19T08:09:25.520Z,32.08
2022-11-19T08:11:53.774Z,32.17
2022-11-19T08:14:21.866Z,33.05
2022-11-19T08:17:07.263Z,33.08
2022-11-19T08:19:36.962Z,31.35
2022-11-19T08:24:33.026Z,31.42
2022-11-19T08:27:02.205Z,33.58
2022-11-19T08:29:30.586Z,34.15
2022-11-19T08:31:59.054Z,33.35
2022-11-19T08:34:27.085Z,34.67
2022-11-19T08:36:56.410Z,34.83
2022-11-19T08:39:24.488Z,39.17
2022-11-19T08:42:10.092Z,47.97
2022-11-19T08:44:38.150Z,40.83
2022-11-19T08:47:06.152Z,42.33
2022-11-19T08:49:34.519Z,41.63
2022-11-19T08:52:04.289Z,39.92
2022-11-19T08:57:00.749Z,39.00
2022-11-19T08:59:29.201Z,35.20
2022-11-19T09:01:57.315Z,33.65
2022-11-19T09:04:25.379Z,33.88
2022-11-19T09:06:53.634Z,33.38
2022-11-19T09:09:24.201Z,32.22
2022-11-19T09:11:52.673Z,33.67
2022-11-19T09:14:21.089Z,32.00
2022-11-19T09:16:49.862Z,33.20
2022-11-19T09:19:18.047Z,33.75
2022-11-19T09:21:46.104Z,31.38
2022-11-19T09:24:14.384Z,31.90
2022-11-19T09:26:47.593Z,32.47
2022-11-19T09:29:18.558Z,32.40
2022-11-19T09:31:46.614Z,32.78
2022-11-19T09:34:14.661Z,31.85
2022-11-19T09:36:42.799Z,31.75
2022-11-19T09:39:11.950Z,31.40
2022-11-19T09:41:57.183Z,33.28
2022-11-19T09:44:42.566Z,30.88
2022-11-19T09:47:24.011Z,33.13
2022-11-19T09:50:01.677Z,32.00
2022-11-19T09:52:33.976Z,34.55
2022-11-19T09:55:03.402Z,36.88
2022-11-19T09:57:37.941Z,34.08
2022-11-19T10:00:09.901Z,34.38
2022-11-19T10:02:41.768Z,34.00
2022-11-19T10:05:15.752Z,33.72
2022-11-19T10:07:53.989Z,34.85
2022-11-19T10:10:35.221Z,35.80
2022-11-19T10:13:17.598Z,34.05
2022-11-19T10:16:07.142Z,35.13
2022-11-19T10:18:46.670Z,35.50
2022-11-19T10:21:20.069Z,34.00
2022-11-19T10:23:52.987Z,34.35
2022-11-19T10:26:28.267Z,35.53
2022-11-19T10:29:00.645Z,36.22
2022-11-19T10:31:36.027Z,33.67
2022-11-19T10:34:08.719Z,34.97
2022-11-19T10:36:43.770Z,35.50
2022-11-19T10:39:22.414Z,31.85
2022-11-19T10:41:59.969Z,31.50
2022-11-19T10:44:41.499Z,27.60
2022-11-19T10:47:16.402Z,28.98
2022-11-19T10:49:45.403Z,28.95
2022-11-19T10:52:27.953Z,28.40
2022-11-19T10:55:00.887Z,28.23
2022-11-19T10:57:32.506Z,30.48
2022-11-19T11:56:30.308Z,8.52
2022-11-19T11:59:22.835Z,8.52
2022-11-19T12:01:58.860Z,9.50
2022-11-19T12:04:27.583Z,9.13
2022-11-19T12:07:06.261Z,9.75
2022-11-19T12:09:43.344Z,10.57
2022-11-19T12:12:18.793Z,13.27
2022-11-19T12:14:56.877Z,10.70
2022-11-19T12:17:37.133Z,11.25
2022-11-19T12:20:20.938Z,11.32
2022-11-19T12:22:59.228Z,10.57
2022-11-19T12:25:35.470Z,10.98
2022-11-19T12:28:21.319Z,10.90
2022-11-19T12:31:05.014Z,10.90
2022-11-19T12:34:02.855Z,11.43
2022-11-19T12:36:41.523Z,10.38
2022-11-19T12:39:22.934Z,10.25
2022-11-19T12:42:03.515Z,10.25
2022-11-19T12:44:45.707Z,9.52
2022-11-19T12:47:30.149Z,9.45
2022-11-19T12:50:17.234Z,8.35
2022-11-19T12:53:08.798Z,7.55
2022-11-19T12:55:43.788Z,7.38
2022-11-19T12:58:23.346Z,7.93
2022-11-19T13:00:56.245Z,8.32
2022-11-19T13:03:38.498Z,8.60
2022-11-19T13:06:16.729Z,7.72
2022-11-19T13:08:53.181Z,8.48
2022-11-19T13:11:24.891Z,8.13
2022-11-19T13:13:58.511Z,9.40
2022-11-19T13:16:28.767Z,9.63
2022-11-19T13:19:10.339Z,9.80
2022-11-19T13:21:45.454Z,9.43
2022-11-19T13:24:25.459Z,9.50
2022-11-19T13:26:56.323Z,10.00
2022-11-19T13:29:42.955Z,9.85
2022-11-19T13:32:39.125Z,9.63
2022-11-19T13:35:21.884Z,10.02
2022-11-19T13:37:58.736Z,9.98
2022-11-19T13:40:31.300Z,9.60
2022-11-19T13:43:32.952Z,10.23
2022-11-19T13:46:09.514Z,11.50
2022-11-19T13:48:43.115Z,13.85
2022-11-19T13:51:21.891Z,71.03
2022-11-19T13:53:52.274Z,28.45
2022-11-19T13:56:22.965Z,27.20
2022-11-19T13:58:53.854Z,38.03
2022-11-19T14:01:45.325Z,36.38
2022-11-19T14:04:37.173Z,20.17
2022-11-19T14:07:33.783Z,14.48
2022-11-19T14:10:11.997Z,11.40
2022-11-19T14:13:09.024Z,11.38
2022-11-19T14:16:19.458Z,21.55
2022-11-19T14:19:08.070Z,39.13
2022-11-19T14:22:11.376Z,18.23
2022-11-19T14:25:22.701Z,13.55
2022-11-19T14:27:51.607Z,14.10
2022-11-19T14:30:22.211Z,19.67
2022-11-19T14:32:55.337Z,24.60
2022-11-19T14:35:52.114Z,18.92
2022-11-19T14:39:05.970Z,18.00
2022-11-19T14:42:24.359Z,14.90
2022-11-19T15:34:03.789Z,11.18
2022-11-19T15:37:50.415Z,11.85
2022-11-19T15:51:11.095Z,14.25
2022-11-19T15:54:26.665Z,15.18
2022-11-19T15:57:06.704Z,16.38
2022-11-19T15:59:46.999Z,18.75
2022-11-19T16:02:23.835Z,19.97
2022-11-19T16:04:57.341Z,18.00
2022-11-19T16:07:30.845Z,20.33
2022-11-19T16:10:04.930Z,20.95
2022-11-19T16:12:50.735Z,21.48
2022-11-19T16:15:39.729Z,23.55
2022-11-19T16:18:19.339Z,20.08
2022-11-19T16:23:21.805Z,24.90
2022-11-19T16:25:56.382Z,25.77
2022-11-19T16:28:31.441Z,27.15
2022-11-19T16:31:02.363Z,28.85
2022-11-19T16:33:34.729Z,28.45
2022-11-19T16:36:14.743Z,30.80
2022-11-19T16:38:46.935Z,31.00
2022-11-19T16:41:38.428Z,31.40
2022-11-19T16:44:23.119Z,35.40
2022-11-19T16:46:52.277Z,39.10
2022-11-19T16:49:32.934Z,37.30
2022-11-19T16:52:05.456Z,38.05
2022-11-19T16:54:48.602Z,36.55
2022-11-19T16:57:21.885Z,38.50
2022-11-19T16:59:53.118Z,37.70
2022-11-19T17:02:24.999Z,39.28
2022-11-19T17:04:55.500Z,58.72
2022-11-19T17:10:10.561Z,42.15
2022-11-19T17:12:51.548Z,41.22
2022-11-19T17:15:38.557Z,43.83
2022-11-19T17:18:17.107Z,48.35
2022-11-19T17:20:53.567Z,47.63
2022-11-19T17:23:23.542Z,58.70
2022-11-19T17:28:32.078Z,50.42
2022-11-19T17:31:01.537Z,49.80
2022-11-19T17:33:35.491Z,47.45
2022-11-19T17:36:05.551Z,45.00
2022-11-19T17:38:34.576Z,44.33
2022-11-19T17:41:05.064Z,41.53
2022-11-19T17:43:55.578Z,42.03
2022-11-19T17:46:26.418Z,39.95
2022-11-19T17:48:54.960Z,44.17
2022-11-19T17:51:24.651Z,41.08
2022-11-19T17:56:26.259Z,36.00
2022-11-19T17:58:59.677Z,32.15
2022-11-19T18:01:31.645Z,31.73
2022-11-19T18:04:04.422Z,32.40
2022-11-19T18:06:33.782Z,31.63
2022-11-19T18:09:02.663Z,32.60
2022-11-19T18:11:31.291Z,34.13
2022-11-19T18:14:05.506Z,32.08
2022-11-19T18:16:35.212Z,35.50
2022-11-19T18:21:31.571Z,38.15
2022-11-19T18:24:00.371Z,38.00
2022-11-19T18:26:28.980Z,32.23
2022-11-19T18:28:57.921Z,39.38
2022-11-19T18:31:29.585Z,42.63
2022-11-19T18:33:58.355Z,41.03
2022-11-19T18:36:27.953Z,40.25
2022-11-19T18:38:56.673Z,38.72
2022-11-19T18:41:25.384Z,36.58
2022-11-19T18:44:11.712Z,35.43
2022-11-19T18:46:41.403Z,35.88
2022-11-19T18:51:39.126Z,37.22
2022-11-19T18:54:07.839Z,39.85
2022-11-19T18:56:38.345Z,44.20
2022-11-19T18:59:07.797Z,42.90
2022-11-19T19:01:37.207Z,40.45
2022-11-19T19:04:07.489Z,37.60
2022-11-19T19:06:38.367Z,36.38
2022-11-19T19:09:08.235Z,33.80
2022-11-19T19:11:53.780Z,47.28
2022-11-19T19:14:22.205Z,45.55
2022-11-19T19:16:51.633Z,66.32
2022-11-19T19:19:21.733Z,52.28
2022-11-19T19:21:52.089Z,54.97
2022-11-19T19:24:20.905Z,42.03
2022-11-19T19:26:50.680Z,36.72
2022-11-19T19:29:18.909Z,35.63
2022-11-19T19:31:47.338Z,35.38
2022-11-19T19:34:15.747Z,35.88
2022-11-19T19:36:51.841Z,36.25
2022-11-19T19:39:24.841Z,33.83
2022-11-19T19:41:54.545Z,32.90
2022-11-19T19:44:23.020Z,34.78
2022-11-19T19:46:51.432Z,34.30
2022-11-19T19:49:20.762Z,34.58
2022-11-19T19:51:52.921Z,33.25
2022-11-19T19:54:21.413Z,34.40
2022-11-19T19:56:49.753Z,33.80
2022-11-19T19:59:18.839Z,36.40
2022-11-19T20:01:50.805Z,39.10
2022-11-19T20:04:19.847Z,36.47
2022-11-19T20:06:49.048Z,37.50
2022-11-19T20:09:19.245Z,39.13
2022-11-19T20:11:48.466Z,34.42
2022-11-19T20:14:16.767Z,35.45
2022-11-19T20:16:47.088Z,35.05
2022-11-19T20:19:17.594Z,26.42
2022-11-19T20:26:46.182Z,21.98
2022-11-19T20:31:48.622Z,21.85
2022-11-19T20:34:17.937Z,23.33
2022-11-19T20:36:47.743Z,24.52
2022-11-19T20:39:16.056Z,22.70
2022-11-19T20:42:04.635Z,25.63
2022-11-19T20:44:35.937Z,25.70
2022-11-19T20:47:05.226Z,23.70
2022-11-19T20:49:35.788Z,24.55
2022-11-19T20:52:04.400Z,23.20
2022-11-19T20:57:03.896Z,22.70
2022-11-19T20:59:32.466Z,22.27
2022-11-19T21:02:01.318Z,23.00
2022-11-19T21:04:44.144Z,24.73
2022-11-19T21:07:16.253Z,23.30
2022-11-19T21:09:45.215Z,23.90
2022-11-19T21:13:02.311Z,22.27
2022-11-19T21:15:37.088Z,21.05
2022-11-19T21:18:10.548Z,20.73
2022-11-19T21:20:40.028Z,22.25
2022-11-19T21:23:09.981Z,21.38
2022-11-19T21:25:38.479Z,20.20
2022-11-19T21:28:08.340Z,21.35
2022-11-19T21:30:42.642Z,20.38
2022-11-19T21:33:14.653Z,20.63
2022-11-19T21:35:43.148Z,20.25
2022-11-19T21:38:12.435Z,21.10
2022-11-19T21:40:42.876Z,20.73
2022-11-19T21:43:11.315Z,20.25
2022-11-19T21:45:50.235Z,19.92
2022-11-19T21:48:31.103Z,20.27
2022-11-19T21:51:00.052Z,20.75
2022-11-19T21:53:30.154Z,21.40
2022-11-19T21:55:58.462Z,20.65
2022-11-19T21:58:31.605Z,21.23
2022-11-19T22:01:04.921Z,21.65
2022-11-19T22:03:36.297Z,22.85
2022-11-19T22:06:06.716Z,25.33
2022-11-19T22:08:36.873Z,23.20
2022-11-19T22:11:26.686Z,25.33
2022-11-19T22:13:55.522Z,26.02
2022-11-19T22:16:26.119Z,23.83
2022-11-19T22:18:54.873Z,23.98
2022-11-19T22:21:25.486Z,24.60
2022-11-19T22:23:56.543Z,23.92
2022-11-19T22:26:24.781Z,23.88
2022-11-19T22:28:53.529Z,24.70
2022-11-19T22:31:22.106Z,23.70
2022-11-19T22:33:52.731Z,25.35
2022-11-19T22:36:22.623Z,44.97
2022-11-19T22:38:54.593Z,28.77
2022-11-19T22:41:23.342Z,23.67
2022-11-19T22:43:52.221Z,23.17
2022-11-19T22:46:23.546Z,23.38
2022-11-19T22:48:53.314Z,24.90
2022-11-19T22:51:23.088Z,23.83
2022-11-19T22:53:55.287Z,24.85
2022-11-19T22:56:31.364Z,24.20
2022-11-19T22:59:02.348Z,23.73
2022-11-19T23:01:33.574Z,23.50
2022-11-19T23:04:07.001Z,23.95
2022-11-19T23:06:36.353Z,24.80
2022-11-19T23:09:07.052Z,23.88
2022-11-19T23:11:53.199Z,25.05
2022-11-19T23:14:22.279Z,24.65
2022-11-19T23:16:50.800Z,23.10
2022-11-19T23:19:21.365Z,24.40
2022-11-19T23:21:50.240Z,24.58
2022-11-19T23:24:18.553Z,24.53
2022-11-19T23:26:47.282Z,26.08
2022-11-19T23:29:16.289Z,28.03
2022-11-19T23:31:44.633Z,27.60
2022-11-19T23:34:13.141Z,26.95
2022-11-19T23:36:43.096Z,25.65
2022-11-19T23:39:19.122Z,24.70
2022-11-19T23:41:48.521Z,25.40
2022-11-19T23:44:17.412Z,24.27
2022-11-19T23:46:46.593Z,26.20
2022-11-19T23:49:15.538Z,26.80
2022-11-19T23:51:45.832Z,23.67
2022-11-19T23:54:15.049Z,25.35
2022-11-19T23:56:43.486Z,23.92
2022-11-19T23:59:15.471Z,28.40
